CPX713 Details

Departure: Incheon International Airport (RKSI)
Arrival: Tokyo-Narita International Airport (RJAA) at N/A
Route: SEL1S SEL G597 KAE Y437 TENAS L512 GTC Y303 KAMOH Y301 SHELY Y30 MELON NORMA
Notes:


Current Weather Information
RKSI 231200Z 04003KT CAVOK 18/09 Q1019 NOSIG
RJAA 231200Z 07005KT 9999 FEW025 BKN/// 17/14 Q1021 NOSIG